createdAt,value
2019-06-10T00:03:13.202Z,3.79
2019-06-10T00:08:11.788Z,3.61
2019-06-10T00:13:18.178Z,3.80
2019-06-10T00:18:40.938Z,3.96
2019-06-10T00:23:33.284Z,4.17
2019-06-10T00:28:41.018Z,3.83
2019-06-10T00:33:48.910Z,4.80
2019-06-10T00:38:56.635Z,4.26
2019-06-10T00:44:05.300Z,4.41
2019-06-10T00:49:14.545Z,4.48
2019-06-10T00:54:21.786Z,4.81
2019-06-10T00:59:27.200Z,4.50
2019-06-10T01:04:34.987Z,4.36
2019-06-10T01:09:42.907Z,4.68
2019-06-10T01:14:51.661Z,4.39
2019-06-10T01:20:01.344Z,4.26
2019-06-10T01:25:07.235Z,4.46
2019-06-10T01:30:20.611Z,4.45
2019-06-10T01:35:21.176Z,4.37
2019-06-10T01:40:28.559Z,4.41
2019-06-10T01:45:36.508Z,4.21
2019-06-10T01:50:44.188Z,4.65
2019-06-10T01:55:52.062Z,4.86
2019-06-10T02:01:01.434Z,4.40
2019-06-10T02:06:08.685Z,4.34
2019-06-10T02:11:17.025Z,4.02
2019-06-10T02:16:24.068Z,4.36
2019-06-10T02:21:31.126Z,4.20
2019-06-10T02:26:37.746Z,4.92
2019-06-10T02:31:45.725Z,3.87
2019-06-10T02:36:53.917Z,4.33
2019-06-10T02:42:04.509Z,3.97
2019-06-10T02:47:13.516Z,4.21
2019-06-10T02:52:19.740Z,4.05
2019-06-10T02:57:34.838Z,4.03
2019-06-10T03:02:36.214Z,4.08
2019-06-10T03:07:43.990Z,3.86
2019-06-10T03:12:48.080Z,3.83
2019-06-10T03:17:55.858Z,4.61
2019-06-10T03:23:03.788Z,3.83
2019-06-10T03:28:12.063Z,4.24
2019-06-10T03:33:20.850Z,3.71
2019-06-10T03:38:27.900Z,3.83
2019-06-10T03:43:33.343Z,4.06
2019-06-10T03:48:43.348Z,4.34
2019-06-10T03:53:48.439Z,3.66
2019-06-10T03:58:56.056Z,3.70
2019-06-10T04:04:04.381Z,3.99
2019-06-10T04:09:12.103Z,4.09
2019-06-10T04:14:19.343Z,3.68
2019-06-10T04:19:27.475Z,4.35
2019-06-10T04:24:33.231Z,4.13
2019-06-10T04:29:42.174Z,4.72
2019-06-10T04:34:49.197Z,4.14
2019-06-10T04:39:57.597Z,4.01
2019-06-10T04:45:04.215Z,3.86
2019-06-10T04:50:24.193Z,4.24
2019-06-10T04:55:21.213Z,4.21
2019-06-10T05:00:27.662Z,4.11
2019-06-10T05:05:34.434Z,4.21
2019-06-10T05:10:42.443Z,4.34
2019-06-10T05:15:52.560Z,4.45
2019-06-10T05:20:58.710Z,4.25
2019-06-10T05:26:04.782Z,3.83
2019-06-10T05:31:15.039Z,4.30
2019-06-10T05:36:13.356Z,4.03
2019-06-10T05:41:21.635Z,4.47
2019-06-10T05:46:28.623Z,3.73
2019-06-10T05:51:35.349Z,4.12
2019-06-10T05:56:43.322Z,4.38
2019-06-10T06:01:49.492Z,3.87
2019-06-10T06:06:57.215Z,4.09
2019-06-10T06:12:05.068Z,4.07
2019-06-10T06:17:15.949Z,3.76
2019-06-10T06:22:22.127Z,4.03
2019-06-10T06:27:28.688Z,3.97
2019-06-10T06:32:36.314Z,3.91
2019-06-10T06:37:42.983Z,4.24
2019-06-10T06:42:52.422Z,3.81
2019-06-10T06:47:57.474Z,4.02
2019-06-10T06:53:21.001Z,4.00
2019-06-10T06:58:12.826Z,3.75
2019-06-10T07:03:22.877Z,3.93
2019-06-10T07:08:28.334Z,4.01
2019-06-10T07:13:37.812Z,3.71
2019-06-10T07:18:49.928Z,3.80
2019-06-10T07:23:52.810Z,3.90
2019-06-10T07:28:58.523Z,3.97
2019-06-10T07:34:06.181Z,4.21
2019-06-10T07:39:13.917Z,4.33
2019-06-10T07:44:22.626Z,4.25
2019-06-10T07:49:29.042Z,4.12
2019-06-10T07:54:39.637Z,4.34
2019-06-10T07:59:37.434Z,4.29
2019-06-10T08:04:46.091Z,4.08
2019-06-10T08:09:53.336Z,4.52
2019-06-10T08:15:02.784Z,4.37
2019-06-10T08:20:09.930Z,4.45
2019-06-10T08:25:15.071Z,3.96
2019-06-10T08:30:27.254Z,3.80
2019-06-10T08:35:39.359Z,4.70
2019-06-10T08:40:38.320Z,5.02
2019-06-10T08:45:46.768Z,4.75
2019-06-10T08:50:53.122Z,4.23
2019-06-10T08:55:59.342Z,4.21
2019-06-10T09:01:07.570Z,4.67
2019-06-10T09:06:15.460Z,4.44
2019-06-10T09:11:23.677Z,4.42
2019-06-10T09:16:32.448Z,4.54
2019-06-10T09:21:40.577Z,4.85
2019-06-10T09:26:48.658Z,4.22
2019-06-10T09:31:55.729Z,4.26
2019-06-10T09:37:03.524Z,4.64
2019-06-10T09:42:08.438Z,4.28
2019-06-10T09:47:16.082Z,4.07
2019-06-10T09:52:24.054Z,4.16
2019-06-10T09:57:32.218Z,3.88
2019-06-10T10:02:41.835Z,3.48
2019-06-10T10:07:49.968Z,3.68
2019-06-10T10:12:55.769Z,3.11
2019-06-10T10:18:02.446Z,3.52
2019-06-10T10:23:08.722Z,3.26
2019-06-10T10:28:16.826Z,3.86
2019-06-10T10:33:29.728Z,3.20
2019-06-10T10:38:34.592Z,3.35
2019-06-10T10:43:39.674Z,3.15
2019-06-10T10:48:48.936Z,3.56
2019-06-10T10:54:17.706Z,3.47
2019-06-10T10:59:02.392Z,3.34
2019-06-10T11:04:13.016Z,3.39
2019-06-10T11:09:17.413Z,3.19
2019-06-10T11:14:25.117Z,3.09
2019-06-10T11:19:33.095Z,3.02
2019-06-10T11:24:43.933Z,3.19
2019-06-10T11:29:48.199Z,3.31
2019-06-10T11:34:57.012Z,3.56
2019-06-10T11:40:03.170Z,3.10
2019-06-10T11:45:11.623Z,3.15
2019-06-10T11:50:18.375Z,3.22
2019-06-10T11:55:26.276Z,3.15
2019-06-10T12:00:34.204Z,2.77
2019-06-10T12:05:42.119Z,3.10
2019-06-10T12:10:51.930Z,2.77
2019-06-10T12:16:49.408Z,3.19
2019-06-10T12:21:04.754Z,2.88
2019-06-10T12:26:12.663Z,2.61
2019-06-10T12:31:22.971Z,2.77
2019-06-10T12:36:27.992Z,2.93
2019-06-10T12:41:37.841Z,2.47
2019-06-10T12:46:45.950Z,2.83
2019-06-10T12:51:54.768Z,2.90
2019-06-10T12:57:04.680Z,2.98
2019-06-10T13:02:18.957Z,2.55
2019-06-10T13:07:15.570Z,2.97
2019-06-10T13:12:23.383Z,3.00
2019-06-10T13:17:31.364Z,2.80
2019-06-10T13:22:39.259Z,2.66
2019-06-10T13:27:47.114Z,2.92
2019-06-10T13:32:56.367Z,2.97
2019-06-10T13:38:04.099Z,3.16
2019-06-10T13:43:12.247Z,2.71
2019-06-10T13:48:17.438Z,2.80
2019-06-10T13:53:25.204Z,3.08
2019-06-10T13:58:33.022Z,2.82
2019-06-10T14:03:43.233Z,2.53
2019-06-10T14:08:48.342Z,2.66
2019-06-10T14:13:56.253Z,3.34
2019-06-10T14:19:06.208Z,2.74
2019-06-10T14:24:15.803Z,3.36
2019-06-10T14:29:18.788Z,2.81
2019-06-10T14:34:26.677Z,3.08
2019-06-10T14:39:34.486Z,2.85
2019-06-10T14:44:42.252Z,3.39
2019-06-10T14:49:50.233Z,3.11
2019-06-10T14:54:58.039Z,3.30
2019-06-10T15:00:07.639Z,3.27
2019-06-10T15:05:34.517Z,3.16
2019-06-10T15:10:23.235Z,3.30
2019-06-10T15:15:28.350Z,3.94
2019-06-10T15:20:36.091Z,3.41
2019-06-10T15:25:50.014Z,3.99
2019-06-10T15:30:52.469Z,3.54
2019-06-10T15:35:58.592Z,3.93
2019-06-10T15:41:06.223Z,3.30
2019-06-10T15:46:16.010Z,3.88
2019-06-10T15:51:25.654Z,4.15
2019-06-10T15:56:39.872Z,4.17
2019-06-10T16:01:37.365Z,4.06
2019-06-10T16:06:45.223Z,4.10
2019-06-10T16:11:53.840Z,4.38
2019-06-10T16:17:02.986Z,4.72
2019-06-10T16:22:07.922Z,4.17
2019-06-10T16:27:15.902Z,4.10
2019-06-10T16:32:24.854Z,4.02
2019-06-10T16:37:32.792Z,4.40
2019-06-10T16:42:38.885Z,4.38
2019-06-10T16:47:46.739Z,3.93
2019-06-10T16:52:54.748Z,4.51
2019-06-10T16:58:03.155Z,4.81
2019-06-10T17:03:12.793Z,4.97
2019-06-10T17:08:19.835Z,5.19
2019-06-10T17:13:27.186Z,4.66
2019-06-10T17:18:33.777Z,5.14
2019-06-10T17:23:43.407Z,5.04
2019-06-10T17:28:48.714Z,5.43
2019-06-10T17:33:56.546Z,5.75
2019-06-10T17:39:04.378Z,5.99
2019-06-10T17:44:13.099Z,5.51
2019-06-10T17:49:25.838Z,6.15
2019-06-10T17:54:23.546Z,6.55
2019-06-10T17:59:29.109Z,7.14
2019-06-10T18:04:36.913Z,6.19
2019-06-10T18:09:45.075Z,6.54
2019-06-10T18:14:52.908Z,6.93
2019-06-10T18:20:02.808Z,7.11
2019-06-10T18:25:08.865Z,7.00
2019-06-10T18:30:16.651Z,6.88
2019-06-10T18:35:25.503Z,6.94
2019-06-10T18:40:31.946Z,6.71
2019-06-10T18:45:40.467Z,6.41
2019-06-10T18:50:47.176Z,6.37
2019-06-10T18:55:55.119Z,7.04
2019-06-10T19:01:07.037Z,6.73
2019-06-10T19:06:12.331Z,6.83
2019-06-10T19:11:16.909Z,7.91
2019-06-10T19:16:24.576Z,7.76
2019-06-10T19:21:32.439Z,7.27
2019-06-10T19:26:41.026Z,7.09
2019-06-10T19:31:48.314Z,6.51
2019-06-10T19:36:56.026Z,5.99
2019-06-10T19:42:03.679Z,6.07
2019-06-10T19:47:12.958Z,5.81
2019-06-10T19:52:18.656Z,5.61
2019-06-10T19:57:26.305Z,6.32
2019-06-10T20:02:34.567Z,6.28
2019-06-10T20:07:45.827Z,6.45
2019-06-10T20:12:48.844Z,6.18
2019-06-10T20:17:56.840Z,5.91
2019-06-10T20:23:04.625Z,5.14
2019-06-10T20:28:15.113Z,4.32
2019-06-10T20:33:13.441Z,3.84
2019-06-10T20:38:22.299Z,3.93
2019-06-10T20:43:28.606Z,4.23
2019-06-10T20:48:38.867Z,3.57
2019-06-10T20:53:46.363Z,3.59
2019-06-10T20:58:52.664Z,2.93
2019-06-10T21:04:03.413Z,2.54
2019-06-10T21:09:07.723Z,2.45
2019-06-10T21:14:15.826Z,2.27
2019-06-10T21:19:23.592Z,2.12
2019-06-10T21:24:33.374Z,1.95
2019-06-10T21:29:44.052Z,2.03
2019-06-10T21:34:49.292Z,1.92
2019-06-10T21:39:56.870Z,1.86
2019-06-10T21:45:04.552Z,2.00
2019-06-10T21:50:12.539Z,2.17
2019-06-10T21:55:19.612Z,2.45
2019-06-10T22:00:27.276Z,2.35
2019-06-10T22:05:34.979Z,3.05
2019-06-10T22:10:45.920Z,2.63
2019-06-10T22:15:54.832Z,2.91
2019-06-10T22:20:59.506Z,3.28
2019-06-10T22:26:07.136Z,3.50
2019-06-10T22:31:19.163Z,3.79
2019-06-10T22:36:23.174Z,3.95
2019-06-10T22:41:29.353Z,4.73
2019-06-10T22:46:37.330Z,5.47
2019-06-10T22:51:45.044Z,6.51
2019-06-10T22:56:56.213Z,5.71
2019-06-10T23:02:02.840Z,5.79
2019-06-10T23:07:07.303Z,6.71
2019-06-10T23:12:15.045Z,7.54
2019-06-10T23:17:23.343Z,6.87
2019-06-10T23:22:31.332Z,7.97
2019-06-10T23:27:43.736Z,7.36
2019-06-10T23:32:46.422Z,8.69
2019-06-10T23:37:56.919Z,9.18
2019-06-10T23:43:03.716Z,8.46
2019-06-10T23:48:09.123Z,10.78
2019-06-10T23:53:16.876Z,10.61
2019-06-10T23:58:25.187Z,10.57
